Time;durP1;ratioP1;P1;durP2;ratioP2;P2;SDS_P1;SDS_P2;PMS_P1;PMS_P2;Temp;Humidity;BMP_temperature;BMP_pressure;BME280_temperature;BME280_humidity;BME280_pressure;Samples;Min_cycle;Max_cycle;Signal;HPM_P1;HPM_P2
2022/11/16 00:00:46;;;;;;;;;65.20;51.00;;;;;13.95;67.32;97982.22;6186006;28;96727;-63
2022/11/16 00:03:51;;;;;;;;;63.60;50.00;;;;;13.93;67.48;97978.97;6166442;28;97156;-65
2022/11/16 00:06:54;;;;;;;;;67.00;51.20;;;;;13.89;67.44;97975.16;6180581;28;97252;-65
2022/11/16 00:09:58;;;;;;;;;67.00;52.00;;;;;13.88;67.62;97974.34;6175666;28;96459;-65
2022/11/16 00:13:01;;;;;;;;;68.20;52.60;;;;;13.91;67.72;97970.31;6184191;28;96785;-62
2022/11/16 00:16:07;;;;;;;;;68.20;54.20;;;;;13.92;67.53;97971.13;6167506;28;97008;-62
2022/11/16 00:19:11;;;;;;;;;68.50;52.50;;;;;13.96;67.54;97969.50;6185789;28;96353;-62
2022/11/16 00:22:15;;;;;;;;;68.50;54.25;;;;;13.99;67.44;97968.97;6183976;28;96869;-62
2022/11/16 00:25:18;;;;;;;;;72.00;55.40;;;;;14.01;67.23;97964.91;6167636;28;96292;-62
2022/11/16 00:28:24;;;;;;;;;69.80;54.80;;;;;14.02;67.17;97966.56;6178508;28;96295;-62
2022/11/16 00:31:29;;;;;;;;;70.40;53.00;;;;;14.03;66.82;97968.16;6179312;28;97396;-62
2022/11/16 00:34:33;;;;;;;;;66.25;51.50;;;;;14.05;66.80;97965.19;6186521;28;96404;-65
2022/11/16 00:37:36;;;;;;;;;66.40;52.00;;;;;14.08;66.89;97961.94;6185137;28;96331;-61
2022/11/16 00:40:40;;;;;;;;;66.40;52.00;;;;;13.99;66.56;97942.69;6185223;28;96342;-62
2022/11/16 00:43:44;;;;;;;;;64.40;49.40;;;;;14.16;66.66;97964.16;6183739;28;96509;-61
2022/11/16 00:46:48;;;;;;;;;63.00;50.00;;;;;14.17;66.43;97957.66;6164133;28;98498;-62
2022/11/16 00:49:52;;;;;;;;;65.00;51.60;;;;;14.18;66.48;97962.78;6165946;28;97169;-63
2022/11/16 00:52:56;;;;;;;;;68.00;52.00;;;;;14.20;66.26;97957.09;6159956;28;96669;-64
2022/11/16 00:55:59;;;;;;;;;64.40;50.00;;;;;14.15;66.37;97954.38;6165740;28;96681;-61
2022/11/16 00:59:06;;;;;;;;;67.00;51.00;;;;;14.18;66.32;97959.25;6182459;28;96501;-61
2022/11/16 01:02:11;;;;;;;;;67.00;51.75;;;;;14.17;66.67;97944.88;6162037;28;96564;-61
2022/11/16 01:05:16;;;;;;;;;65.40;51.00;;;;;14.23;66.23;97946.53;6182656;28;97345;-62
2022/11/16 01:08:20;;;;;;;;;65.40;51.20;;;;;14.24;66.22;97950.06;6165611;28;96609;-62
2022/11/16 01:14:47;;;;;;;;;65.20;51.00;;;;;14.22;66.23;97950.31;6184004;28;96544;-62
2022/11/16 01:17:53;;;;;;;;;67.60;52.00;;;;;14.18;65.90;97924.84;6158806;28;96434;-62
2022/11/16 01:20:56;;;;;;;;;65.25;51.50;;;;;14.29;66.03;97948.19;6184148;28;96868;-62
2022/11/16 01:24:00;;;;;;;;;68.60;52.00;;;;;14.32;65.99;97947.63;6185173;28;97299;-62
2022/11/16 01:27:03;;;;;;;;;67.20;52.00;;;;;14.31;66.00;97947.94;6182873;28;96378;-62
2022/11/16 01:30:13;;;;;;;;;71.00;54.20;;;;;14.29;66.02;97933.81;6183366;28;97907;-62
2022/11/16 01:33:23;;;;;;;;;70.80;57.20;;;;;14.28;65.96;97929.47;6183245;28;97799;-61
2022/11/16 01:36:27;;;;;;;;;71.50;54.25;;;;;14.28;65.95;97919.44;6185875;28;96311;-62
2022/11/16 01:39:33;;;;;;;;;70.00;53.00;;;;;14.28;66.22;97916.72;6187125;28;97103;-61
2022/11/16 01:42:38;;;;;;;;;69.60;54.60;;;;;14.29;66.25;97917.53;6166564;28;96697;-64
2022/11/16 01:45:43;;;;;;;;;69.00;53.00;;;;;14.24;66.10;97907.50;6189462;28;97065;-64
2022/11/16 01:48:58;;;;;;;;;67.75;53.50;;;;;14.29;66.23;97912.13;6188792;28;96277;-62
2022/11/16 01:52:05;;;;;;;;;70.00;53.75;;;;;14.28;66.16;97902.34;6187927;28;96810;-63
2022/11/16 01:55:12;;;;;;;;;68.80;53.80;;;;;14.25;66.46;97898.28;6187725;28;96323;-64
2022/11/16 01:58:30;;;;;;;;;68.00;53.60;;;;;14.25;66.32;97901.00;6187590;28;96845;-62
2022/11/16 02:01:49;;;;;;;;;71.00;53.60;;;;;14.24;66.47;97893.94;6169536;28;96798;-63
2022/11/16 02:04:58;;;;;;;;;71.00;56.00;;;;;14.23;66.38;97896.91;6187338;28;96974;-63
2022/11/16 02:12:15;;;;;;;;;72.60;57.00;;;;;14.20;66.30;97886.63;6179661;28;96503;-63
2022/11/16 02:15:26;;;;;;;;;71.00;57.00;;;;;14.21;66.49;97878.25;6185995;28;96685;-62
2022/11/16 02:18:49;;;;;;;;;71.00;57.00;;;;;14.18;66.45;97867.91;6171335;28;96381;-62
2022/11/16 02:22:05;;;;;;;;;71.40;57.40;;;;;14.18;66.49;97856.25;6189600;28;96266;-62
2022/11/16 02:25:17;;;;;;;;;73.00;59.00;;;;;14.13;66.78;97853.53;6186630;28;96304;-63
2022/11/16 02:28:34;;;;;;;;;69.40;55.00;;;;;14.10;66.98;97860.31;6171374;28;96566;-62
2022/11/16 02:31:46;;;;;;;;;70.00;55.40;;;;;13.70;66.98;97801.47;6172082;28;96841;-63
2022/11/16 02:34:54;;;;;;;;;71.00;56.67;;;;;14.07;67.03;97860.06;6186883;28;96490;-63
2022/11/16 02:38:03;;;;;;;;;73.00;57.67;;;;;14.06;67.21;97856.53;6153557;28;96914;-63
2022/11/16 02:41:12;;;;;;;;;70.00;57.00;;;;;14.08;67.15;97853.53;6175724;28;96376;-62
2022/11/16 02:44:21;;;;;;;;;71.00;55.67;;;;;14.10;67.30;97849.50;6187329;28;96829;-62
2022/11/16 02:47:31;;;;;;;;;69.40;55.40;;;;;14.13;67.40;97840.81;6189432;28;96375;-64
2022/11/16 02:50:36;;;;;;;;;70.00;54.20;;;;;14.16;66.97;97832.16;6170997;28;97074;-63
2022/11/16 02:53:52;;;;;;;;;70.25;56.25;;;;;14.17;67.25;97835.69;6189482;28;96465;-64
2022/11/16 02:57:16;;;;;;;;;72.00;57.40;;;;;14.13;66.91;97815.59;6162735;28;96583;-62
2022/11/16 03:00:22;;;;;;;;;72.00;56.50;;;;;14.24;66.89;97828.06;6155960;28;96779;-62
2022/11/16 03:03:35;;;;;;;;;73.80;59.00;;;;;14.19;67.07;97823.47;6164282;28;96298;-63
2022/11/16 03:06:42;;;;;;;;;70.40;58.40;;;;;14.20;67.16;97822.38;6179031;28;96931;-62
2022/11/16 03:09:48;;;;;;;;;71.20;57.60;;;;;14.14;67.54;97815.34;6179879;28;96197;-65
2022/11/16 03:12:51;;;;;;;;;74.00;59.00;;;;;14.10;67.46;97824.28;6161075;28;96810;-62
2022/11/16 03:15:56;;;;;;;;;72.00;57.00;;;;;14.07;67.66;97814.81;6162460;28;96601;-62
2022/11/16 03:19:05;;;;;;;;;71.75;56.50;;;;;14.03;67.43;97807.44;6156111;28;97005;-62
2022/11/16 03:22:14;;;;;;;;;72.40;59.00;;;;;14.09;67.79;97820.75;6162915;28;96310;-64
2022/11/16 03:25:20;;;;;;;;;71.67;58.00;;;;;14.14;67.57;97820.75;6164811;28;98265;-63
2022/11/16 03:28:35;;;;;;;;;69.80;56.20;;;;;14.14;67.43;97820.75;6177155;28;96222;-64
2022/11/16 03:31:47;;;;;;;;;71.00;56.00;;;;;14.13;67.62;97812.88;6164212;28;96314;-63
2022/11/16 03:35:02;;;;;;;;;70.20;53.80;;;;;14.13;67.40;97812.88;6162049;28;96645;-63
2022/11/16 03:38:08;;;;;;;;;72.40;56.80;;;;;14.11;67.56;97809.66;6156119;28;96265;-63
2022/11/16 03:41:18;;;;;;;;;69.00;55.00;;;;;14.13;67.50;97807.47;6162117;28;96220;-63
2022/11/16 03:44:22;;;;;;;;;70.00;55.00;;;;;14.14;67.52;97804.50;6179269;28;96408;-63
2022/11/16 03:47:25;;;;;;;;;67.00;52.25;;;;;14.17;67.27;97805.88;6162114;28;96565;-64
2022/11/16 03:50:31;;;;;;;;;69.80;53.80;;;;;14.19;67.52;97803.69;6162066;28;96334;-64
2022/11/16 03:53:36;;;;;;;;;69.00;54.00;;;;;14.20;67.32;97800.72;6145123;28;97400;-63
2022/11/16 03:56:39;;;;;;;;;67.00;52.40;;;;;14.25;67.37;97808.03;6182601;28;96342;-64
2022/11/16 03:59:44;;;;;;;;;66.40;52.40;;;;;14.24;67.36;97795.53;6169749;28;96434;-64
2022/11/16 04:02:47;;;;;;;;;69.00;52.75;;;;;14.26;67.26;97798.81;6168702;28;97358;-63
2022/11/16 04:26:15;;;;;;;;;68.00;53.00;;;;;14.19;67.54;97766.53;6169053;28;96788;-63
2022/11/16 04:29:18;;;;;;;;;66.33;51.67;;;;;14.30;67.68;97778.19;6185265;28;96291;-63
2022/11/16 04:39:05;;;;;;;;;66.75;52.00;;;;;14.30;67.87;97778.19;6172845;28;96528;-63
2022/11/16 04:42:14;;;;;;;;;69.00;55.00;;;;;14.28;67.84;97770.34;6165235;28;96569;-63
2022/11/16 04:48:42;;;;;;;;;64.00;50.60;;;;;14.19;68.33;97771.16;6184921;28;97099;-63
2022/11/16 04:51:46;;;;;;;;;68.25;52.00;;;;;14.12;68.60;97771.41;6189881;28;96306;-63
2022/11/16 04:54:51;;;;;;;;;67.00;52.20;;;;;14.08;68.96;97766.81;6181262;28;96613;-62
2022/11/16 04:57:54;;;;;;;;;67.00;52.00;;;;;14.08;69.26;97767.63;6165701;28;97472;-62
2022/11/16 05:01:00;;;;;;;;;71.50;56.25;;;;;14.04;69.52;97758.41;6188149;28;96916;-63
2022/11/16 05:04:04;;;;;;;;;65.00;51.00;;;;;14.05;69.38;97759.22;6156496;28;96807;-62
2022/11/16 05:07:09;;;;;;;;;66.25;51.50;;;;;14.06;69.33;97758.16;6177712;28;96901;-63
2022/11/16 05:10:17;;;;;;;;;68.80;53.00;;;;;14.10;69.56;97751.91;6171901;28;96463;-62
2022/11/16 05:13:20;;;;;;;;;68.50;53.00;;;;;14.12;69.28;97762.50;6179126;28;96261;-62
2022/11/16 05:16:26;;;;;;;;;70.60;53.40;;;;;14.12;69.36;97751.66;6167153;28;98340;-63
2022/11/16 05:22:54;;;;;;;;;68.00;51.00;;;;;14.18;69.83;97745.13;6169357;28;97068;-62
2022/11/16 05:26:01;;;;;;;;;71.40;53.00;;;;;14.22;69.49;97743.53;6163808;28;96582;-62
2022/11/16 05:29:04;;;;;;;;;66.75;51.00;;;;;14.24;69.40;97741.34;6184288;28;98431;-62
2022/11/16 05:32:09;;;;;;;;;66.60;52.00;;;;;14.07;69.56;97713.72;6170261;28;96330;-62
2022/11/16 05:35:14;;;;;;;;;70.00;54.60;;;;;14.27;69.50;97741.59;6170210;28;96277;-62
2022/11/16 05:38:18;;;;;;;;;69.80;53.00;;;;;14.32;69.30;97743.47;6187825;28;97483;-65
2022/11/16 05:41:27;;;;;;;;;68.80;53.00;;;;;14.24;69.04;97730.50;6180852;28;96392;-65
2022/11/16 05:44:31;;;;;;;;;68.40;53.00;;;;;14.34;69.31;97749.44;6150333;28;96958;-63
2022/11/16 05:47:35;;;;;;;;;67.60;52.00;;;;;14.35;69.33;97748.38;6183226;28;96988;-62
2022/11/16 05:50:38;;;;;;;;;64.00;50.00;;;;;14.36;69.41;97744.63;6169153;28;96606;-63
2022/11/16 05:53:55;;;;;;;;;68.00;52.80;;;;;14.38;69.47;97745.13;6152347;28;98619;-63
2022/11/16 05:57:00;;;;;;;;;65.00;51.00;;;;;14.39;69.37;97730.50;6165269;28;97557;-63
2022/11/16 06:00:05;;;;;;;;;67.80;53.00;;;;;14.42;69.44;97735.38;6179922;28;96625;-63
2022/11/16 06:03:17;;;;;;;;;68.00;53.00;;;;;14.44;69.37;97730.50;6186972;28;97570;-63
2022/11/16 06:06:21;;;;;;;;;67.25;53.00;;;;;14.49;69.23;97733.19;6185815;28;96482;-63
2022/11/16 06:09:26;;;;;;;;;66.00;51.00;;;;;14.49;69.24;97730.47;6171819;28;96479;-64
2022/11/16 06:12:32;;;;;;;;;65.00;51.00;;;;;14.51;69.28;97731.03;6186969;28;96398;-62
2022/11/16 06:15:37;;;;;;;;;66.67;51.00;;;;;14.53;69.17;97730.72;6184008;28;96449;-64
2022/11/16 06:18:44;;;;;;;;;65.00;51.00;;;;;14.49;69.39;97727.75;6168294;28;97538;-65
2022/11/16 06:21:49;;;;;;;;;68.80;51.20;;;;;14.58;69.29;97730.72;6171100;28;96400;-63
2022/11/16 06:24:55;;;;;;;;;62.40;48.20;;;;;14.60;69.04;97737.50;6169409;28;96603;-63
2022/11/16 06:28:00;;;;;;;;;65.00;50.60;;;;;14.63;68.83;97736.13;6164502;28;96995;-63
2022/11/16 06:31:10;;;;;;;;;61.20;48.60;;;;;14.65;68.89;97734.78;6168711;28;97319;-63
2022/11/16 06:34:16;;;;;;;;;66.80;50.00;;;;;14.63;68.75;97728.81;6170146;28;97082;-62
2022/11/16 06:37:20;;;;;;;;;65.00;51.00;;;;;14.63;68.76;97730.72;6170719;28;96356;-63
2022/11/16 06:40:23;;;;;;;;;64.80;50.20;;;;;14.64;68.87;97735.88;6189352;28;96558;-63
2022/11/16 06:43:29;;;;;;;;;66.40;51.00;;;;;14.66;68.78;97728.25;6187834;28;96961;-63
2022/11/16 06:46:32;;;;;;;;;67.80;52.40;;;;;14.68;68.71;97722.56;6188805;28;97061;-63
2022/11/16 06:49:35;;;;;;;;;65.20;51.00;;;;;14.63;68.71;97717.16;6170962;28;96730;-62
2022/11/16 06:52:45;;;;;;;;;64.60;50.60;;;;;14.53;69.27;97717.19;6171176;28;96606;-63
2022/11/16 06:55:49;;;;;;;;;63.20;49.00;;;;;14.45;69.24;97704.19;6170301;28;96314;-62
2022/11/16 06:58:55;;;;;;;;;65.60;51.00;;;;;14.46;69.10;97694.97;6187056;28;97151;-63
2022/11/16 07:02:00;;;;;;;;;63.75;48.00;;;;;14.42;69.27;97705.53;6171037;28;96989;-62
2022/11/16 07:05:08;;;;;;;;;63.20;49.20;;;;;14.49;68.95;97699.84;6167639;28;96567;-63
2022/11/16 07:08:11;;;;;;;;;66.50;50.75;;;;;14.50;68.90;97696.84;6151851;28;97544;-64
2022/11/16 07:11:14;;;;;;;;;66.00;50.00;;;;;14.35;68.59;97688.72;6190874;28;96932;-63
2022/11/16 07:14:20;;;;;;;;;64.80;51.00;;;;;14.44;68.32;97692.53;6150567;28;97048;-63
2022/11/16 07:17:24;;;;;;;;;65.80;50.00;;;;;14.47;68.57;97685.72;6170268;28;96648;-64
2022/11/16 07:20:28;;;;;;;;;66.40;51.00;;;;;14.52;68.22;97688.41;6169832;28;96696;-63
2022/11/16 07:23:32;;;;;;;;;62.00;50.00;;;;;14.56;67.95;97682.16;6163817;28;96567;-64
2022/11/16 07:26:36;;;;;;;;;64.75;50.50;;;;;14.60;67.05;97682.44;6169405;28;96392;-62
2022/11/16 07:29:52;;;;;;;;;59.80;47.00;;;;;14.47;66.65;97689.25;6167492;28;96423;-62
2022/11/16 07:33:15;;;;;;;;;65.20;50.20;;;;;14.43;66.89;97684.66;6173240;28;96418;-62
2022/11/16 07:36:37;;;;;;;;;69.50;53.00;;;;;14.35;66.91;97682.50;6187929;28;96250;-62
2022/11/16 07:39:45;;;;;;;;;62.00;48.00;;;;;14.21;67.16;97677.66;6170137;28;96820;-62
2022/11/16 07:42:49;;;;;;;;;63.00;49.50;;;;;14.18;67.17;97682.78;6170234;28;96928;-62
2022/11/16 07:46:08;;;;;;;;;62.00;48.60;;;;;14.12;67.16;97684.69;6169738;28;96468;-63
2022/11/16 07:49:31;;;;;;;;;64.00;50.00;;;;;14.10;67.63;97686.06;6185099;28;96696;-61
2022/11/16 07:52:42;;;;;;;;;62.00;48.00;;;;;14.09;67.57;97684.44;6169241;28;96555;-61
2022/11/16 07:55:53;;;;;;;;;63.25;50.00;;;;;13.99;67.90;97689.84;6152572;28;97677;-63
2022/11/16 07:58:58;;;;;;;;;53.60;42.40;;;;;13.93;67.38;97691.75;6168548;28;96923;-63
2022/11/16 08:02:04;;;;;;;;;59.00;47.00;;;;;13.89;67.87;97688.78;6169821;28;96429;-63
2022/11/16 08:05:08;;;;;;;;;57.80;45.40;;;;;13.85;68.11;97695.84;6169602;28;96706;-63
2022/11/16 08:08:14;;;;;;;;;58.00;46.00;;;;;13.87;67.95;97695.56;6169616;28;96401;-63
2022/11/16 08:11:17;;;;;;;;;56.80;44.80;;;;;13.82;67.78;97695.56;6185187;28;96843;-64
2022/11/16 08:14:21;;;;;;;;;55.20;44.20;;;;;13.81;67.76;97694.75;6169672;28;96747;-63
2022/11/16 08:17:27;;;;;;;;;53.75;41.25;;;;;13.84;67.92;97693.38;6172382;28;96205;-63
2022/11/16 08:20:35;;;;;;;;;54.20;43.20;;;;;13.80;67.46;97701.25;6186201;28;96260;-63
2022/11/16 08:23:39;;;;;;;;;56.00;44.00;;;;;13.76;67.72;97704.78;6184157;28;96830;-63
2022/11/16 08:26:43;;;;;;;;;55.60;44.40;;;;;13.74;68.00;97694.19;6182832;28;97131;-63
2022/11/16 08:29:48;;;;;;;;;54.75;43.00;;;;;13.68;68.19;97702.63;6167682;28;96247;-65
2022/11/16 08:32:53;;;;;;;;;51.80;41.20;;;;;13.55;67.98;97697.72;6185415;28;96977;-63
2022/11/16 08:35:58;;;;;;;;;48.20;38.60;;;;;13.36;68.25;97692.00;6173288;28;97637;-64
2022/11/16 08:39:01;;;;;;;;;51.00;40.00;;;;;13.24;68.46;97699.59;6170312;28;96880;-65
2022/11/16 08:42:07;;;;;;;;;46.20;38.60;;;;;13.13;68.35;97697.94;6167995;28;96398;-64
2022/11/16 08:45:11;;;;;;;;;39.40;33.00;;;;;13.03;68.67;97699.50;6168871;28;96352;-64
2022/11/16 08:48:17;;;;;;;;;36.00;31.00;;;;;13.02;68.49;97697.03;6185499;28;97820;-63
2022/11/16 08:51:21;;;;;;;;;41.00;33.80;;;;;12.98;68.64;97702.19;6168948;28;96360;-63
2022/11/16 08:54:31;;;;;;;;;29.50;26.50;;;;;12.89;68.69;97703.78;6169383;28;96625;-63
2022/11/16 08:57:35;;;;;;;;;31.40;30.00;;;;;12.82;68.21;97708.59;6161577;28;96341;-64
2022/11/16 09:00:42;;;;;;;;;32.60;28.00;;;;;12.76;67.70;97717.78;6161629;28;96360;-63
2022/11/16 09:03:47;;;;;;;;;29.40;24.00;;;;;12.65;68.14;97707.19;6162464;28;96318;-63
2022/11/16 09:06:51;;;;;;;;;29.60;25.00;;;;;12.68;68.71;97707.47;6165208;28;96181;-63
2022/11/16 09:09:55;;;;;;;;;26.00;24.00;;;;;12.69;68.49;97711.00;6186892;28;96558;-64
2022/11/16 09:12:58;;;;;;;;;27.75;26.75;;;;;12.58;68.26;97704.72;6187392;28;96234;-64
2022/11/16 09:16:02;;;;;;;;;25.20;24.20;;;;;12.58;68.64;97705.53;6186971;28;96262;-64
2022/11/16 09:19:06;;;;;;;;;25.25;23.25;;;;;12.55;68.56;97699.84;6186957;28;96478;-63
2022/11/16 09:22:10;;;;;;;;;22.00;20.00;;;;;12.60;68.71;97691.75;6186612;28;97041;-63
2022/11/16 09:25:13;;;;;;;;;20.00;18.25;;;;;12.54;68.63;97688.22;6168146;28;98490;-65
2022/11/16 09:28:17;;;;;;;;;22.50;20.00;;;;;12.39;68.88;97673.81;6186740;28;96878;-65
2022/11/16 09:31:21;;;;;;;;;22.80;20.20;;;;;12.48;68.82;97669.53;6168698;28;96622;-65
2022/11/16 09:34:27;;;;;;;;;20.50;18.75;;;;;12.54;68.98;97668.47;6186781;28;96662;-65
2022/11/16 09:37:30;;;;;;;;;24.00;22.40;;;;;12.60;68.91;97675.53;6186153;28;97156;-64
2022/11/16 09:40:36;;;;;;;;;20.00;18.50;;;;;12.66;68.65;97665.56;6186731;28;96329;-63
2022/11/16 09:43:52;;;;;;;;;21.60;20.60;;;;;12.70;68.08;97669.34;6186665;28;96264;-63
2022/11/16 09:46:58;;;;;;;;;17.00;16.00;;;;;12.77;68.29;97661.78;6186752;28;96339;-63
2022/11/16 09:50:05;;;;;;;;;21.60;20.60;;;;;12.80;67.66;97658.59;6186425;28;96264;-63
2022/11/16 09:53:30;;;;;;;;;19.80;18.20;;;;;12.83;67.80;97660.75;6168216;28;96849;-63
2022/11/16 09:56:40;;;;;;;;;22.75;20.75;;;;;12.84;67.45;97644.25;6188960;28;96353;-63
2022/11/16 09:59:47;;;;;;;;;16.40;15.00;;;;;12.74;67.05;97649.63;6190614;28;96337;-63
2022/11/16 10:03:01;;;;;;;;;15.00;12.60;;;;;12.81;67.20;97641.25;6173059;28;97556;-64
2022/11/16 10:06:17;;;;;;;;;17.00;15.40;;;;;12.89;67.29;97635.34;6190806;28;96863;-65
2022/11/16 10:09:21;;;;;;;;;13.80;12.00;;;;;12.93;67.21;97631.84;6166025;28;96282;-65
2022/11/16 10:12:31;;;;;;;;;15.25;14.00;;;;;13.03;67.01;97625.63;6166228;28;96397;-64
2022/11/16 10:15:50;;;;;;;;;18.00;18.00;;;;;13.02;66.74;97611.28;6165700;28;96787;-65
2022/11/16 10:18:57;;;;;;;;;15.00;15.00;;;;;13.11;66.15;97608.91;6188817;28;96430;-63
2022/11/16 10:22:10;;;;;;;;;16.00;15.00;;;;;13.25;65.67;97615.41;6190483;28;96323;-63
2022/11/16 10:25:18;;;;;;;;;19.60;18.60;;;;;13.28;65.36;97611.34;6171661;28;96861;-63
2022/11/16 10:28:47;;;;;;;;;17.20;16.00;;;;;13.22;65.50;97607.00;6190043;28;96249;-63
2022/11/16 10:32:03;;;;;;;;;15.00;14.75;;;;;13.08;65.43;97589.66;6190516;28;96297;-64
2022/11/16 10:35:15;;;;;;;;;17.00;16.00;;;;;13.19;65.49;97602.97;6190560;28;96331;-64
2022/11/16 10:38:23;;;;;;;;;15.00;14.00;;;;;13.26;65.74;97597.25;6190379;28;96371;-63
2022/11/16 10:41:34;;;;;;;;;17.00;15.80;;;;;13.14;65.02;97589.44;6190054;28;96456;-64
2022/11/16 10:44:41;;;;;;;;;15.80;15.40;;;;;13.16;65.51;97594.56;6190366;28;96730;-63
2022/11/16 10:47:51;;;;;;;;;16.00;15.00;;;;;13.13;65.62;97601.31;6190048;28;96335;-63
2022/11/16 10:50:55;;;;;;;;;16.00;14.00;;;;;13.19;65.68;97599.44;6172064;28;96687;-64
2022/11/16 10:54:00;;;;;;;;;22.40;22.40;;;;;13.18;65.75;97598.63;6189828;28;96361;-63
2022/11/16 10:57:12;;;;;;;;;21.20;20.00;;;;;13.15;66.22;97598.34;6188749;28;96568;-63
2022/11/16 11:00:34;;;;;;;;;20.50;17.50;;;;;13.09;66.22;97599.41;6189494;28;96498;-63
2022/11/16 11:03:38;;;;;;;;;22.00;20.00;;;;;13.04;66.16;97592.09;6170704;28;96671;-63
2022/11/16 11:06:42;;;;;;;;;19.00;17.40;;;;;13.05;66.54;97599.09;6189164;28;96143;-63
2022/11/16 11:09:52;;;;;;;;;14.00;13.80;;;;;13.03;66.09;97596.69;6204835;28;96894;-63
2022/11/16 11:13:15;;;;;;;;;16.00;14.50;;;;;12.98;65.83;97596.69;6214505;28;96246;-63
2022/11/16 11:16:18;;;;;;;;;20.00;18.00;;;;;12.90;66.13;97591.78;6205266;28;96486;-64
2022/11/16 11:19:27;;;;;;;;;18.80;17.20;;;;;12.92;66.47;97586.94;6213917;28;96254;-63
2022/11/16 11:22:32;;;;;;;;;16.00;14.00;;;;;12.89;66.31;97590.19;6214289;28;96376;-63
2022/11/16 11:25:41;;;;;;;;;21.00;19.80;;;;;12.94;66.90;97592.88;6178372;28;96735;-64
2022/11/16 11:28:49;;;;;;;;;17.00;15.00;;;;;13.00;66.40;97594.50;6189228;28;96668;-66
2022/11/16 11:31:55;;;;;;;;;16.25;14.50;;;;;12.98;66.21;97593.16;6171246;28;96193;-66
2022/11/16 11:35:00;;;;;;;;;15.25;14.25;;;;;12.95;66.42;97591.78;6191953;28;96625;-65
2022/11/16 11:38:04;;;;;;;;;17.00;14.00;;;;;12.82;66.93;97567.97;6194080;28;96836;-66
2022/11/16 11:41:18;;;;;;;;;16.00;14.00;;;;;12.94;66.88;97592.88;6188975;28;96432;-66
2022/11/16 11:44:27;;;;;;;;;14.00;14.00;;;;;12.95;66.80;97585.59;6189144;28;96758;-66
2022/11/16 11:47:39;;;;;;;;;16.40;15.20;;;;;12.98;66.81;97587.75;6188997;28;96274;-66
2022/11/16 11:51:04;;;;;;;;;15.00;15.00;;;;;12.93;66.91;97579.63;6188898;28;96509;-64
2022/11/16 11:54:18;;;;;;;;;17.00;16.00;;;;;12.90;66.46;97580.19;6191116;28;96632;-65
2022/11/16 11:57:24;;;;;;;;;14.60;14.00;;;;;12.89;66.56;97573.94;6188336;28;96705;-65
2022/11/16 12:00:37;;;;;;;;;16.25;15.50;;;;;12.92;66.54;97578.00;6185909;28;96437;-65
2022/11/16 12:03:58;;;;;;;;;20.00;20.00;;;;;12.96;67.20;97571.78;6184979;28;96646;-65
2022/11/16 12:07:12;;;;;;;;;14.40;13.40;;;;;12.96;66.95;97569.06;6184369;28;96370;-65
2022/11/16 12:10:26;;;;;;;;;15.00;14.75;;;;;12.98;67.01;97564.22;6186858;28;96499;-65
2022/11/16 12:13:51;;;;;;;;;12.00;11.00;;;;;12.89;66.80;97559.59;6185352;28;96850;-64
2022/11/16 12:17:05;;;;;;;;;15.00;14.00;;;;;12.81;66.72;97563.63;6192611;28;96288;-64
2022/11/16 12:20:26;;;;;;;;;21.40;17.60;;;;;12.82;67.27;97570.69;6186454;28;96378;-65
2022/11/16 12:23:44;;;;;;;;;13.20;12.00;;;;;12.80;67.16;97563.94;6190790;28;96245;-64
2022/11/16 12:27:00;;;;;;;;;18.00;17.00;;;;;12.80;67.15;97558.53;6199861;28;96576;-64
2022/11/16 12:30:13;;;;;;;;;13.00;13.00;;;;;12.77;67.24;97559.03;6204322;28;98530;-64
2022/11/16 12:33:27;;;;;;;;;11.00;10.50;;;;;12.76;67.43;97552.81;6175979;28;96278;-66
2022/11/16 12:36:40;;;;;;;;;11.00;9.00;;;;;12.76;67.39;97552.81;6186397;28;96266;-64
2022/11/16 12:39:48;;;;;;;;;10.00;9.00;;;;;12.72;67.35;97559.84;6185587;28;96380;-65
2022/11/16 12:43:00;;;;;;;;;9.60;9.60;;;;;12.68;67.21;97555.25;6165690;28;98457;-63
2022/11/16 12:46:16;;;;;;;;;10.00;10.00;;;;;12.57;67.31;97557.09;6185864;28;97105;-64
2022/11/16 12:49:44;;;;;;;;;10.60;9.60;;;;;12.63;67.60;97547.94;6185109;28;96542;-64
2022/11/16 12:53:05;;;;;;;;;9.40;9.00;;;;;12.60;67.75;97556.59;6178518;28;96652;-65
2022/11/16 12:56:16;;;;;;;;;10.00;9.40;;;;;12.43;67.84;97553.28;6183191;28;97096;-65
2022/11/16 12:59:38;;;;;;;;;10.00;9.00;;;;;12.44;68.04;97547.63;6185114;28;97679;-64
2022/11/16 13:02:56;;;;;;;;;9.00;8.60;;;;;12.38;67.99;97551.38;6184136;28;96732;-64
2022/11/16 13:06:03;;;;;;;;;6.25;6.25;;;;;12.45;68.12;97543.03;6187095;28;96391;-64
2022/11/16 13:09:11;;;;;;;;;11.40;11.40;;;;;12.48;67.92;97543.28;6187379;28;96902;-64
2022/11/16 13:12:18;;;;;;;;;6.00;5.60;;;;;12.46;68.01;97542.75;6187312;28;96441;-64
2022/11/16 13:15:28;;;;;;;;;9.40;8.40;;;;;12.40;68.11;97540.31;6180433;28;96458;-65
2022/11/16 13:18:36;;;;;;;;;10.60;10.60;;;;;12.38;68.36;97539.75;6176705;28;97140;-64
2022/11/16 13:21:49;;;;;;;;;10.00;9.00;;;;;12.40;68.01;97543.00;6183671;28;96515;-65
2022/11/16 13:24:58;;;;;;;;;10.40;10.20;;;;;12.40;68.23;97540.31;6173698;28;96960;-65
2022/11/16 13:28:13;;;;;;;;;9.60;9.60;;;;;12.31;68.44;97542.72;6177658;28;97522;-65
2022/11/16 13:31:24;;;;;;;;;11.00;10.60;;;;;12.27;68.66;97538.91;6191094;28;96318;-64
2022/11/16 13:34:32;;;;;;;;;11.00;11.00;;;;;12.15;68.16;97544.56;6191402;28;96399;-64
2022/11/16 13:37:46;;;;;;;;;12.00;12.00;;;;;12.06;68.81;97545.31;6191190;28;96271;-65
2022/11/16 13:40:50;;;;;;;;;11.00;11.00;;;;;12.06;69.38;97545.31;6173376;28;96480;-64
2022/11/16 13:43:53;;;;;;;;;12.00;11.60;;;;;12.03;69.46;97538.53;6172778;28;97184;-65
2022/11/16 13:47:03;;;;;;;;;13.40;13.00;;;;;11.84;69.93;97529.28;6190961;28;96326;-65
2022/11/16 13:50:18;;;;;;;;;12.00;10.40;;;;;11.98;69.73;97535.81;6190681;28;96392;-65
2022/11/16 13:53:25;;;;;;;;;13.40;12.00;;;;;11.95;69.87;97524.72;6185829;28;96547;-64
2022/11/16 13:56:51;;;;;;;;;10.50;10.00;;;;;11.81;69.95;97532.50;6184405;28;96565;-64
2022/11/16 14:00:12;;;;;;;;;13.00;13.00;;;;;11.87;69.98;97527.94;6187507;28;97157;-64
2022/11/16 14:03:28;;;;;;;;;12.00;11.60;;;;;11.85;69.86;97530.09;6179530;28;97484;-64
2022/11/16 14:06:59;;;;;;;;;7.00;6.00;;;;;11.92;69.83;97530.69;6183585;28;97143;-64
2022/11/16 14:10:29;;;;;;;;;6.75;6.75;;;;;11.92;69.70;97538.78;6188137;28;97106;-63
2022/11/16 14:13:41;;;;;;;;;6.40;6.00;;;;;11.90;69.65;97532.81;6183780;28;96595;-64
2022/11/16 14:16:47;;;;;;;;;6.00;5.67;;;;;11.71;69.72;97529.72;6208739;28;97536;-64
2022/11/16 14:19:56;;;;;;;;;5.00;5.00;;;;;11.89;69.49;97528.47;6193814;28;96665;-64
2022/11/16 14:23:24;;;;;;;;;9.00;9.00;;;;;11.81;69.40;97520.88;6184340;28;96590;-65
2022/11/16 14:26:42;;;;;;;;;8.60;8.00;;;;;11.84;69.23;97528.47;6172521;28;96536;-64
2022/11/16 14:29:55;;;;;;;;;8.00;8.00;;;;;11.84;69.74;97520.34;6199146;28;96344;-64
2022/11/16 14:32:59;;;;;;;;;9.00;9.00;;;;;11.81;69.77;97529.81;6185449;28;96956;-64
2022/11/16 14:36:04;;;;;;;;;7.60;7.40;;;;;11.73;70.09;97526.78;6203000;28;96935;-64
2022/11/16 14:39:29;;;;;;;;;5.60;5.60;;;;;11.65;70.58;97528.88;6193203;28;96980;-64
2022/11/16 14:42:44;;;;;;;;;8.00;8.00;;;;;11.75;70.48;97517.34;6169417;28;96701;-64
2022/11/16 14:46:16;;;;;;;;;9.00;9.00;;;;;11.85;70.22;97522.81;6170645;28;96916;-65
2022/11/16 14:49:21;;;;;;;;;7.00;6.20;;;;;11.99;69.88;97525.81;6187075;28;96923;-65
2022/11/16 14:52:31;;;;;;;;;6.40;6.00;;;;;11.96;69.76;97527.19;6188718;28;96975;-66
2022/11/16 14:55:42;;;;;;;;;9.50;9.00;;;;;11.99;69.69;97529.34;6184950;28;97101;-64
2022/11/16 14:58:52;;;;;;;;;6.00;5.40;;;;;12.05;69.11;97536.41;6167634;28;96669;-64
2022/11/16 15:01:56;;;;;;;;;7.00;6.00;;;;;12.05;69.31;97531.00;6165872;28;97076;-64
2022/11/16 15:05:01;;;;;;;;;7.60;6.00;;;;;12.06;68.93;97532.63;6178191;28;96729;-64
2022/11/16 15:08:16;;;;;;;;;7.00;6.80;;;;;12.04;68.83;97533.94;6179384;28;96521;-65
2022/11/16 15:12:40;;;;;;;;;11.75;11.75;;;;;11.99;68.64;97526.66;6180230;28;96976;-65